sensor_id;sensor_type;location;lat;lon;timestamp;P1;durP1;ratioP1;P2;durP2;ratioP2
37877;SDS011;23715;53.652;8.516;2023-05-20T00:01:40;10.75;;;9.58;;
37877;SDS011;23715;53.652;8.516;2023-05-20T00:06:40;9.80;;;8.98;;
37877;SDS011;23715;53.652;8.516;2023-05-20T00:11:40;9.38;;;8.70;;
37877;SDS011;23715;53.652;8.516;2023-05-20T00:16:40;9.90;;;9.10;;
37877;SDS011;23715;53.652;8.516;2023-05-20T00:26:40;8.60;;;7.90;;
37877;SDS011;23715;53.652;8.516;2023-05-20T00:31:41;9.48;;;8.73;;
37877;SDS011;23715;53.652;8.516;2023-05-20T00:36:41;9.80;;;8.83;;
37877;SDS011;23715;53.652;8.516;2023-05-20T00:41:41;9.03;;;8.35;;
37877;SDS011;23715;53.652;8.516;2023-05-20T00:46:42;9.13;;;8.33;;
37877;SDS011;23715;53.652;8.516;2023-05-20T00:51:44;9.78;;;8.85;;
37877;SDS011;23715;53.652;8.516;2023-05-20T00:56:45;9.53;;;8.90;;
37877;SDS011;23715;53.652;8.516;2023-05-20T01:01:45;8.80;;;8.10;;
37877;SDS011;23715;53.652;8.516;2023-05-20T01:06:46;9.43;;;8.70;;
37877;SDS011;23715;53.652;8.516;2023-05-20T01:16:48;9.70;;;8.88;;
37877;SDS011;23715;53.652;8.516;2023-05-20T01:21:51;9.15;;;8.45;;
37877;SDS011;23715;53.652;8.516;2023-05-20T01:26:52;9.15;;;8.45;;
37877;SDS011;23715;53.652;8.516;2023-05-20T01:31:54;8.85;;;8.28;;
37877;SDS011;23715;53.652;8.516;2023-05-20T01:36:57;9.45;;;8.65;;
37877;SDS011;23715;53.652;8.516;2023-05-20T01:41:58;8.70;;;7.92;;
37877;SDS011;23715;53.652;8.516;2023-05-20T01:46:59;9.07;;;8.33;;
37877;SDS011;23715;53.652;8.516;2023-05-20T01:57:00;9.13;;;8.53;;
37877;SDS011;23715;53.652;8.516;2023-05-20T02:02:01;8.88;;;8.18;;
37877;SDS011;23715;53.652;8.516;2023-05-20T02:07:01;9.10;;;8.48;;
37877;SDS011;23715;53.652;8.516;2023-05-20T02:12:01;8.55;;;7.75;;
37877;SDS011;23715;53.652;8.516;2023-05-20T02:17:04;9.48;;;8.53;;
37877;SDS011;23715;53.652;8.516;2023-05-20T02:22:05;8.78;;;8.20;;
37877;SDS011;23715;53.652;8.516;2023-05-20T02:27:05;8.58;;;7.97;;
37877;SDS011;23715;53.652;8.516;2023-05-20T02:32:05;8.27;;;7.67;;
37877;SDS011;23715;53.652;8.516;2023-05-20T02:37:06;9.45;;;8.63;;
37877;SDS011;23715;53.652;8.516;2023-05-20T02:42:06;8.70;;;7.90;;
37877;SDS011;23715;53.652;8.516;2023-05-20T02:47:07;8.88;;;8.18;;
37877;SDS011;23715;53.652;8.516;2023-05-20T02:52:07;8.70;;;7.78;;
37877;SDS011;23715;53.652;8.516;2023-05-20T02:57:07;8.55;;;7.87;;
37877;SDS011;23715;53.652;8.516;2023-05-20T03:02:07;8.33;;;7.80;;
37877;SDS011;23715;53.652;8.516;2023-05-20T03:07:08;9.20;;;8.18;;
37877;SDS011;23715;53.652;8.516;2023-05-20T03:12:08;7.87;;;7.28;;
37877;SDS011;23715;53.652;8.516;2023-05-20T03:17:08;8.13;;;7.33;;
37877;SDS011;23715;53.652;8.516;2023-05-20T03:22:09;8.38;;;7.65;;
37877;SDS011;23715;53.652;8.516;2023-05-20T03:27:10;7.85;;;7.05;;
37877;SDS011;23715;53.652;8.516;2023-05-20T03:32:10;8.40;;;7.90;;
37877;SDS011;23715;53.652;8.516;2023-05-20T03:37:11;8.15;;;7.47;;
37877;SDS011;23715;53.652;8.516;2023-05-20T03:42:11;8.20;;;7.40;;
37877;SDS011;23715;53.652;8.516;2023-05-20T03:47:12;8.15;;;7.55;;
37877;SDS011;23715;53.652;8.516;2023-05-20T03:52:12;8.20;;;7.60;;
37877;SDS011;23715;53.652;8.516;2023-05-20T03:57:12;8.50;;;7.85;;
37877;SDS011;23715;53.652;8.516;2023-05-20T04:02:13;7.65;;;7.08;;
37877;SDS011;23715;53.652;8.516;2023-05-20T04:07:15;8.58;;;7.78;;
37877;SDS011;23715;53.652;8.516;2023-05-20T04:12:15;8.70;;;8.00;;
37877;SDS011;23715;53.652;8.516;2023-05-20T04:17:16;10.23;;;7.58;;
37877;SDS011;23715;53.652;8.516;2023-05-20T04:22:17;8.88;;;8.18;;
37877;SDS011;23715;53.652;8.516;2023-05-20T04:27:32;8.63;;;7.78;;
37877;SDS011;23715;53.652;8.516;2023-05-20T04:32:19;8.50;;;7.92;;
37877;SDS011;23715;53.652;8.516;2023-05-20T04:37:19;9.30;;;8.60;;
37877;SDS011;23715;53.652;8.516;2023-05-20T04:42:20;9.00;;;8.20;;
37877;SDS011;23715;53.652;8.516;2023-05-20T04:52:19;9.45;;;8.73;;
37877;SDS011;23715;53.652;8.516;2023-05-20T05:02:20;10.32;;;9.63;;
37877;SDS011;23715;53.652;8.516;2023-05-20T05:07:20;10.40;;;9.70;;
37877;SDS011;23715;53.652;8.516;2023-05-20T05:12:21;8.30;;;7.80;;
37877;SDS011;23715;53.652;8.516;2023-05-20T05:17:21;9.30;;;8.70;;
37877;SDS011;23715;53.652;8.516;2023-05-20T05:22:21;9.65;;;8.78;;
37877;SDS011;23715;53.652;8.516;2023-05-20T05:27:22;9.35;;;8.58;;
37877;SDS011;23715;53.652;8.516;2023-05-20T05:32:22;9.35;;;8.73;;
37877;SDS011;23715;53.652;8.516;2023-05-20T05:37:23;9.18;;;8.58;;
37877;SDS011;23715;53.652;8.516;2023-05-20T05:47:23;9.65;;;8.50;;
37877;SDS011;23715;53.652;8.516;2023-05-20T05:52:25;9.85;;;9.05;;
37877;SDS011;23715;53.652;8.516;2023-05-20T05:57:26;8.70;;;8.18;;
37877;SDS011;23715;53.652;8.516;2023-05-20T06:07:26;9.10;;;8.60;;
37877;SDS011;23715;53.652;8.516;2023-05-20T06:12:26;9.90;;;9.18;;
37877;SDS011;23715;53.652;8.516;2023-05-20T06:17:30;9.70;;;9.10;;
37877;SDS011;23715;53.652;8.516;2023-05-20T06:22:30;9.78;;;9.25;;
37877;SDS011;23715;53.652;8.516;2023-05-20T06:27:30;10.23;;;9.63;;
37877;SDS011;23715;53.652;8.516;2023-05-20T06:32:31;10.05;;;9.25;;
37877;SDS011;23715;53.652;8.516;2023-05-20T06:37:32;10.68;;;9.83;;
37877;SDS011;23715;53.652;8.516;2023-05-20T06:42:34;10.58;;;9.50;;
37877;SDS011;23715;53.652;8.516;2023-05-20T06:47:35;10.88;;;9.80;;
37877;SDS011;23715;53.652;8.516;2023-05-20T06:52:36;11.45;;;10.53;;
37877;SDS011;23715;53.652;8.516;2023-05-20T06:57:37;10.35;;;9.70;;
37877;SDS011;23715;53.652;8.516;2023-05-20T07:02:38;10.03;;;9.23;;
37877;SDS011;23715;53.652;8.516;2023-05-20T07:07:42;11.08;;;9.98;;
37877;SDS011;23715;53.652;8.516;2023-05-20T07:12:42;10.65;;;9.85;;
37877;SDS011;23715;53.652;8.516;2023-05-20T07:17:45;13.18;;;11.48;;
37877;SDS011;23715;53.652;8.516;2023-05-20T07:22:45;10.63;;;9.83;;
37877;SDS011;23715;53.652;8.516;2023-05-20T07:27:58;10.53;;;9.83;;
37877;SDS011;23715;53.652;8.516;2023-05-20T07:37:58;11.40;;;10.58;;
37877;SDS011;23715;53.652;8.516;2023-05-20T07:43:01;11.18;;;10.18;;
37877;SDS011;23715;53.652;8.516;2023-05-20T07:48:02;12.30;;;11.12;;
37877;SDS011;23715;53.652;8.516;2023-05-20T07:53:05;11.15;;;10.20;;
37877;SDS011;23715;53.652;8.516;2023-05-20T07:58:09;11.40;;;10.43;;
37877;SDS011;23715;53.652;8.516;2023-05-20T08:03:09;11.93;;;11.10;;
37877;SDS011;23715;53.652;8.516;2023-05-20T08:08:13;12.03;;;11.12;;
37877;SDS011;23715;53.652;8.516;2023-05-20T08:13:19;12.33;;;11.43;;
37877;SDS011;23715;53.652;8.516;2023-05-20T08:18:19;11.68;;;10.88;;
37877;SDS011;23715;53.652;8.516;2023-05-20T08:23:20;11.20;;;10.48;;
37877;SDS011;23715;53.652;8.516;2023-05-20T08:33:21;12.47;;;11.47;;
37877;SDS011;23715;53.652;8.516;2023-05-20T08:38:21;10.78;;;9.88;;
37877;SDS011;23715;53.652;8.516;2023-05-20T08:43:22;11.45;;;10.58;;
37877;SDS011;23715;53.652;8.516;2023-05-20T08:48:24;12.35;;;11.12;;
37877;SDS011;23715;53.652;8.516;2023-05-20T08:53:28;11.28;;;10.40;;
37877;SDS011;23715;53.652;8.516;2023-05-20T09:03:29;12.33;;;11.33;;
37877;SDS011;23715;53.652;8.516;2023-05-20T09:08:30;11.20;;;10.40;;
37877;SDS011;23715;53.652;8.516;2023-05-20T09:13:31;11.45;;;10.50;;
37877;SDS011;23715;53.652;8.516;2023-05-20T09:18:32;19.87;;;10.23;;
37877;SDS011;23715;53.652;8.516;2023-05-20T09:28:35;11.55;;;10.68;;
37877;SDS011;23715;53.652;8.516;2023-05-20T09:33:37;10.48;;;9.58;;
37877;SDS011;23715;53.652;8.516;2023-05-20T09:38:39;10.65;;;9.85;;
37877;SDS011;23715;53.652;8.516;2023-05-20T09:43:43;12.05;;;10.35;;
37877;SDS011;23715;53.652;8.516;2023-05-20T09:48:44;9.55;;;8.95;;
37877;SDS011;23715;53.652;8.516;2023-05-20T09:53:46;10.50;;;9.58;;
37877;SDS011;23715;53.652;8.516;2023-05-20T09:58:46;11.53;;;10.55;;
37877;SDS011;23715;53.652;8.516;2023-05-20T10:03:54;11.00;;;10.30;;
37877;SDS011;23715;53.652;8.516;2023-05-20T10:14:25;10.28;;;9.58;;
37877;SDS011;23715;53.652;8.516;2023-05-20T10:19:36;10.45;;;9.50;;
37877;SDS011;23715;53.652;8.516;2023-05-20T10:29:48;12.13;;;10.18;;
37877;SDS011;23715;53.652;8.516;2023-05-20T10:34:51;13.13;;;12.18;;
37877;SDS011;23715;53.652;8.516;2023-05-20T10:40:07;11.57;;;10.78;;
37877;SDS011;23715;53.652;8.516;2023-05-20T10:45:10;12.33;;;11.40;;
37877;SDS011;23715;53.652;8.516;2023-05-20T10:50:33;11.20;;;10.40;;
37877;SDS011;23715;53.652;8.516;2023-05-20T10:55:40;11.95;;;11.15;;
37877;SDS011;23715;53.652;8.516;2023-05-20T11:00:36;11.83;;;10.98;;
37877;SDS011;23715;53.652;8.516;2023-05-20T11:05:37;11.28;;;10.40;;
37877;SDS011;23715;53.652;8.516;2023-05-20T11:10:43;10.13;;;9.23;;
37877;SDS011;23715;53.652;8.516;2023-05-20T11:15:42;12.28;;;11.38;;
37877;SDS011;23715;53.652;8.516;2023-05-20T11:20:44;11.95;;;10.95;;
37877;SDS011;23715;53.652;8.516;2023-05-20T11:25:45;11.22;;;10.45;;
37877;SDS011;23715;53.652;8.516;2023-05-20T11:30:46;12.18;;;10.95;;
37877;SDS011;23715;53.652;8.516;2023-05-20T11:35:51;9.35;;;8.60;;
37877;SDS011;23715;53.652;8.516;2023-05-20T11:40:51;11.08;;;10.28;;
37877;SDS011;23715;53.652;8.516;2023-05-20T11:45:53;10.20;;;9.60;;
37877;SDS011;23715;53.652;8.516;2023-05-20T11:50:57;10.18;;;9.28;;
37877;SDS011;23715;53.652;8.516;2023-05-20T11:55:58;10.60;;;9.68;;
37877;SDS011;23715;53.652;8.516;2023-05-20T12:00:59;13.95;;;12.55;;
37877;SDS011;23715;53.652;8.516;2023-05-20T12:06:00;9.30;;;8.80;;
37877;SDS011;23715;53.652;8.516;2023-05-20T12:11:02;11.68;;;10.85;;
37877;SDS011;23715;53.652;8.516;2023-05-20T12:16:02;10.30;;;9.53;;
37877;SDS011;23715;53.652;8.516;2023-05-20T12:21:04;10.30;;;9.53;;
37877;SDS011;23715;53.652;8.516;2023-05-20T12:26:05;10.43;;;9.55;;
37877;SDS011;23715;53.652;8.516;2023-05-20T14:54:22;9.05;;;8.35;;
37877;SDS011;23715;53.652;8.516;2023-05-20T14:59:26;9.08;;;8.38;;
37877;SDS011;23715;53.652;8.516;2023-05-20T15:04:26;9.05;;;8.35;;
37877;SDS011;23715;53.652;8.516;2023-05-20T15:09:27;9.07;;;8.37;;
37877;SDS011;23715;53.652;8.516;2023-05-20T15:14:30;8.78;;;7.97;;
37877;SDS011;23715;53.652;8.516;2023-05-20T15:24:30;8.55;;;7.90;;
37877;SDS011;23715;53.652;8.516;2023-05-20T15:29:30;9.08;;;8.35;;
37877;SDS011;23715;53.652;8.516;2023-05-20T15:34:32;9.65;;;8.63;;
37877;SDS011;23715;53.652;8.516;2023-05-20T15:39:35;8.93;;;8.25;;
37877;SDS011;23715;53.652;8.516;2023-05-20T15:44:38;9.58;;;8.78;;
37877;SDS011;23715;53.652;8.516;2023-05-20T15:49:38;8.58;;;7.87;;
37877;SDS011;23715;53.652;8.516;2023-05-20T15:54:39;8.30;;;7.62;;
37877;SDS011;23715;53.652;8.516;2023-05-20T16:04:39;9.93;;;8.85;;
37877;SDS011;23715;53.652;8.516;2023-05-20T16:09:39;9.77;;;8.80;;
37877;SDS011;23715;53.652;8.516;2023-05-20T16:14:42;9.03;;;8.33;;
37877;SDS011;23715;53.652;8.516;2023-05-20T16:19:42;8.78;;;8.18;;
37877;SDS011;23715;53.652;8.516;2023-05-20T16:24:43;10.15;;;9.20;;
37877;SDS011;23715;53.652;8.516;2023-05-20T16:29:44;9.63;;;8.83;;
37877;SDS011;23715;53.652;8.516;2023-05-20T16:34:44;9.43;;;8.80;;
37877;SDS011;23715;53.652;8.516;2023-05-20T16:44:44;8.68;;;7.85;;
37877;SDS011;23715;53.652;8.516;2023-05-20T16:49:45;9.08;;;8.38;;
37877;SDS011;23715;53.652;8.516;2023-05-20T16:54:45;8.45;;;7.80;;
37877;SDS011;23715;53.652;8.516;2023-05-20T16:59:46;9.63;;;8.93;;
37877;SDS011;23715;53.652;8.516;2023-05-20T17:04:46;9.13;;;8.23;;
37877;SDS011;23715;53.652;8.516;2023-05-20T17:14:47;9.30;;;8.40;;
37877;SDS011;23715;53.652;8.516;2023-05-20T17:19:48;9.23;;;8.38;;
37877;SDS011;23715;53.652;8.516;2023-05-20T17:24:48;8.30;;;7.77;;
37877;SDS011;23715;53.652;8.516;2023-05-20T17:29:48;8.00;;;7.42;;
37877;SDS011;23715;53.652;8.516;2023-05-20T17:34:48;10.38;;;9.15;;
37877;SDS011;23715;53.652;8.516;2023-05-20T17:44:48;9.63;;;8.93;;
37877;SDS011;23715;53.652;8.516;2023-05-20T17:49:50;10.03;;;9.10;;
37877;SDS011;23715;53.652;8.516;2023-05-20T17:54:50;10.80;;;10.00;;
37877;SDS011;23715;53.652;8.516;2023-05-20T17:59:50;8.60;;;7.92;;
37877;SDS011;23715;53.652;8.516;2023-05-20T18:04:51;9.73;;;8.93;;
37877;SDS011;23715;53.652;8.516;2023-05-20T18:14:51;9.33;;;8.63;;
37877;SDS011;23715;53.652;8.516;2023-05-20T18:24:51;11.35;;;10.38;;
37877;SDS011;23715;53.652;8.516;2023-05-20T18:34:51;10.78;;;9.28;;
37877;SDS011;23715;53.652;8.516;2023-05-20T18:39:51;10.57;;;9.37;;
37877;SDS011;23715;53.652;8.516;2023-05-20T18:44:54;8.98;;;8.38;;
37877;SDS011;23715;53.652;8.516;2023-05-20T18:49:55;9.88;;;9.05;;
37877;SDS011;23715;53.652;8.516;2023-05-20T18:54:55;10.35;;;9.58;;
37877;SDS011;23715;53.652;8.516;2023-05-20T18:59:57;10.35;;;9.63;;
37877;SDS011;23715;53.652;8.516;2023-05-20T19:04:57;10.48;;;9.58;;
37877;SDS011;23715;53.652;8.516;2023-05-20T19:09:58;10.65;;;9.85;;
37877;SDS011;23715;53.652;8.516;2023-05-20T19:14:58;11.12;;;10.32;;
37877;SDS011;23715;53.652;8.516;2023-05-20T19:19:59;11.68;;;10.68;;
37877;SDS011;23715;53.652;8.516;2023-05-20T19:25:00;11.00;;;10.20;;
37877;SDS011;23715;53.652;8.516;2023-05-20T19:30:02;11.85;;;9.85;;
37877;SDS011;23715;53.652;8.516;2023-05-20T19:35:02;10.45;;;9.68;;
37877;SDS011;23715;53.652;8.516;2023-05-20T19:40:04;11.73;;;10.60;;
37877;SDS011;23715;53.652;8.516;2023-05-20T19:45:11;10.93;;;10.13;;
37877;SDS011;23715;53.652;8.516;2023-05-20T19:50:08;11.30;;;10.30;;
37877;SDS011;23715;53.652;8.516;2023-05-20T19:55:08;11.30;;;10.40;;
37877;SDS011;23715;53.652;8.516;2023-05-20T20:00:09;12.10;;;11.20;;
37877;SDS011;23715;53.652;8.516;2023-05-20T20:05:12;12.43;;;10.30;;
37877;SDS011;23715;53.652;8.516;2023-05-20T20:10:12;10.93;;;10.20;;
37877;SDS011;23715;53.652;8.516;2023-05-20T20:20:12;11.53;;;10.70;;
37877;SDS011;23715;53.652;8.516;2023-05-20T20:25:12;11.85;;;10.95;;
37877;SDS011;23715;53.652;8.516;2023-05-20T20:30:13;13.43;;;11.18;;
37877;SDS011;23715;53.652;8.516;2023-05-20T20:35:13;11.40;;;10.45;;
37877;SDS011;23715;53.652;8.516;2023-05-20T20:40:14;13.05;;;11.85;;
37877;SDS011;23715;53.652;8.516;2023-05-20T20:45:17;12.60;;;11.50;;
37877;SDS011;23715;53.652;8.516;2023-05-20T20:50:20;11.60;;;10.50;;
37877;SDS011;23715;53.652;8.516;2023-05-20T20:55:21;12.03;;;11.03;;
37877;SDS011;23715;53.652;8.516;2023-05-20T21:00:21;12.00;;;10.90;;
37877;SDS011;23715;53.652;8.516;2023-05-20T21:05:26;12.28;;;11.33;;
37877;SDS011;23715;53.652;8.516;2023-05-20T21:10:26;12.28;;;11.12;;
37877;SDS011;23715;53.652;8.516;2023-05-20T21:15:27;11.38;;;10.28;;
37877;SDS011;23715;53.652;8.516;2023-05-20T21:20:29;11.90;;;10.80;;
37877;SDS011;23715;53.652;8.516;2023-05-20T21:25:29;12.15;;;11.22;;
37877;SDS011;23715;53.652;8.516;2023-05-20T21:30:29;13.45;;;10.58;;
37877;SDS011;23715;53.652;8.516;2023-05-20T21:35:30;12.45;;;11.35;;
37877;SDS011;23715;53.652;8.516;2023-05-20T21:40:30;11.70;;;9.80;;
37877;SDS011;23715;53.652;8.516;2023-05-20T21:45:30;11.27;;;10.17;;
37877;SDS011;23715;53.652;8.516;2023-05-20T21:50:30;12.07;;;10.40;;
37877;SDS011;23715;53.652;8.516;2023-05-20T21:55:31;12.20;;;11.12;;
37877;SDS011;23715;53.652;8.516;2023-05-20T22:00:32;12.00;;;10.90;;
37877;SDS011;23715;53.652;8.516;2023-05-20T22:05:32;11.95;;;10.93;;
37877;SDS011;23715;53.652;8.516;2023-05-20T22:15:33;11.57;;;10.40;;
37877;SDS011;23715;53.652;8.516;2023-05-20T22:25:35;11.00;;;10.20;;
37877;SDS011;23715;53.652;8.516;2023-05-20T22:30:35;11.55;;;10.50;;
37877;SDS011;23715;53.652;8.516;2023-05-20T22:35:36;11.38;;;10.50;;
37877;SDS011;23715;53.652;8.516;2023-05-20T22:40:36;11.60;;;10.50;;
37877;SDS011;23715;53.652;8.516;2023-05-20T22:45:36;11.67;;;10.53;;
37877;SDS011;23715;53.652;8.516;2023-05-20T22:50:37;10.82;;;9.88;;
37877;SDS011;23715;53.652;8.516;2023-05-20T22:55:37;11.15;;;10.15;;
37877;SDS011;23715;53.652;8.516;2023-05-20T23:00:38;10.82;;;9.83;;
37877;SDS011;23715;53.652;8.516;2023-05-20T23:05:39;11.93;;;10.78;;
37877;SDS011;23715;53.652;8.516;2023-05-20T23:10:39;12.35;;;10.70;;
37877;SDS011;23715;53.652;8.516;2023-05-20T23:15:39;12.18;;;11.08;;
37877;SDS011;23715;53.652;8.516;2023-05-20T23:20:39;10.78;;;9.68;;
37877;SDS011;23715;53.652;8.516;2023-05-20T23:25:40;10.93;;;10.03;;
37877;SDS011;23715;53.652;8.516;2023-05-20T23:30:40;10.58;;;9.68;;
37877;SDS011;23715;53.652;8.516;2023-05-20T23:35:40;11.78;;;10.70;;
37877;SDS011;23715;53.652;8.516;2023-05-20T23:40:41;11.88;;;10.75;;
37877;SDS011;23715;53.652;8.516;2023-05-20T23:45:41;11.47;;;10.37;;
37877;SDS011;23715;53.652;8.516;2023-05-20T23:55:41;11.53;;;10.30;;
